Time;durP1;ratioP1;P1;durP2;ratioP2;P2;SDS_P1;SDS_P2;PMS_P1;PMS_P2;Temp;Humidity;BMP_temperature;BMP_pressure;BME280_temperature;BME280_humidity;BME280_pressure;Samples;Min_cycle;Max_cycle;Signal;HPM_P1;HPM_P2
2022/12/22 03:25:53;;;;;;;7.07;5.68;;;5.70;75.30;;;;;;5054940;28;20539;-52
2022/12/22 03:28:24;;;;;;;8.38;6.47;;;5.80;75.40;;;;;;5055379;28;20079;-50
2022/12/22 03:30:54;;;;;;;8.95;6.43;;;5.80;75.50;;;;;;5042098;28;20527;-61
2022/12/22 03:33:20;;;;;;;10.15;6.43;;;5.80;75.50;;;;;;5055386;28;20037;-62
2022/12/22 03:35:46;;;;;;;8.63;6.20;;;5.80;75.50;;;;;;5055089;28;20082;-52
2022/12/22 03:38:12;;;;;;;9.57;6.57;;;5.80;75.50;;;;;;5055384;28;20040;-51
2022/12/22 03:40:37;;;;;;;9.20;6.78;;;5.80;75.60;;;;;;5055099;28;20089;-68
2022/12/22 03:48:36;;;;;;;10.80;7.60;;;5.80;75.40;;;;;;5042543;28;20039;-58
2022/12/22 03:51:01;;;;;;;9.05;6.57;;;5.70;75.90;;;;;;5054429;28;20459;-54
2022/12/22 03:53:27;;;;;;;11.73;7.20;;;5.70;76.00;;;;;;5052549;28;20044;-51
2022/12/22 03:55:53;;;;;;;8.65;6.50;;;5.70;76.10;;;;;;5051080;28;20029;-54
2022/12/22 03:58:18;;;;;;;8.40;6.13;;;5.70;76.20;;;;;;5052560;28;20036;-51
2022/12/22 04:00:44;;;;;;;9.38;6.68;;;5.70;76.30;;;;;;5052612;28;20036;-52
2022/12/22 04:03:09;;;;;;;7.93;5.63;;;5.80;76.50;;;;;;5053310;28;20045;-50
2022/12/22 04:05:35;;;;;;;9.73;6.97;;;5.80;76.40;;;;;;5054756;28;20025;-56
2022/12/22 04:08:01;;;;;;;10.00;6.60;;;5.80;76.40;;;;;;5054769;28;20584;-56
2022/12/22 04:13:11;;;;;;;8.50;6.45;;;5.90;76.50;;;;;;5053205;28;20028;-56
2022/12/22 04:15:36;;;;;;;10.43;7.45;;;5.90;76.50;;;;;;5067226;28;20447;-56
2022/12/22 04:18:02;;;;;;;9.52;7.60;;;6.00;76.50;;;;;;5054171;28;20024;-56
2022/12/22 04:20:28;;;;;;;10.55;7.75;;;5.90;76.40;;;;;;5066981;28;20032;-52
2022/12/22 04:22:57;;;;;;;10.05;7.47;;;5.90;76.40;;;;;;5053483;28;20033;-50
2022/12/22 04:25:23;;;;;;;9.45;7.10;;;6.00;76.50;;;;;;5053480;28;20028;-53
2022/12/22 04:27:49;;;;;;;8.73;6.80;;;6.00;76.60;;;;;;5053238;28;20033;-53
2022/12/22 04:30:16;;;;;;;9.35;6.85;;;6.00;76.70;;;;;;5053364;28;20041;-50
2022/12/22 04:32:41;;;;;;;10.73;7.85;;;6.00;76.70;;;;;;5053611;28;20036;-55
2022/12/22 04:35:08;;;;;;;10.82;7.90;;;6.00;76.70;;;;;;5047804;28;20032;-52
2022/12/22 04:37:35;;;;;;;9.52;7.15;;;6.00;76.70;;;;;;5053551;28;20478;-52
2022/12/22 04:40:00;;;;;;;11.57;8.13;;;6.00;76.70;;;;;;5054258;28;20020;-49
2022/12/22 04:42:26;;;;;;;10.13;7.65;;;6.00;76.70;;;;;;5052736;28;20120;-53
2022/12/22 04:44:51;;;;;;;9.95;7.55;;;6.00;76.60;;;;;;5053785;28;20422;-52
2022/12/22 04:47:17;;;;;;;9.75;7.13;;;6.00;76.60;;;;;;5054094;28;20071;-51
2022/12/22 04:49:43;;;;;;;9.50;7.30;;;6.00;76.50;;;;;;5053745;28;20025;-55
2022/12/22 04:52:09;;;;;;;10.43;7.75;;;6.00;76.50;;;;;;5053609;28;20391;-56
2022/12/22 04:54:34;;;;;;;10.65;7.40;;;6.00;76.50;;;;;;5053142;28;20028;-56
2022/12/22 04:57:00;;;;;;;7.57;6.05;;;6.00;76.50;;;;;;5052466;28;20095;-51
2022/12/22 04:59:25;;;;;;;8.13;6.18;;;6.00;76.40;;;;;;5052793;28;20367;-55
2022/12/22 05:01:51;;;;;;;8.57;6.90;;;6.00;76.50;;;;;;5052848;28;20032;-61
2022/12/22 05:04:17;;;;;;;9.55;7.22;;;6.00;76.60;;;;;;5050797;28;20060;-61
2022/12/22 05:06:42;;;;;;;8.85;6.75;;;5.90;76.60;;;;;;5041758;28;20478;-60
2022/12/22 05:09:09;;;;;;;8.23;6.55;;;5.90;76.60;;;;;;5052203;28;20036;-62
2022/12/22 05:11:35;;;;;;;9.90;6.80;;;5.90;76.60;;;;;;5053813;28;20025;-62
2022/12/22 05:14:01;;;;;;;10.20;6.93;;;5.90;76.70;;;;;;5051762;28;20035;-60
2022/12/22 05:16:26;;;;;;;10.13;8.25;;;5.90;76.70;;;;;;5050909;28;20040;-62
2022/12/22 05:18:52;;;;;;;8.73;7.05;;;5.90;76.70;;;;;;5052514;28;20437;-62
2022/12/22 05:21:20;;;;;;;8.57;6.65;;;5.80;76.70;;;;;;5052973;28;20455;-62
2022/12/22 05:23:46;;;;;;;9.30;6.43;;;5.80;76.70;;;;;;5052776;28;20119;-62
2022/12/22 05:26:13;;;;;;;11.57;7.95;;;5.80;76.70;;;;;;5052690;28;20058;-63
2022/12/22 05:28:40;;;;;;;8.57;7.05;;;5.80;76.90;;;;;;5052818;28;20028;-61
2022/12/22 05:31:24;;;;;;;9.75;7.78;;;5.70;76.70;;;;;;5051188;28;20147;-58
2022/12/22 05:33:50;;;;;;;9.70;7.57;;;5.70;76.80;;;;;;5045309;28;20037;-59
2022/12/22 05:36:16;;;;;;;9.90;7.93;;;5.70;76.90;;;;;;5046200;28;20025;-68
2022/12/22 05:38:43;;;;;;;10.10;7.78;;;5.60;77.00;;;;;;5047970;28;20060;-68
2022/12/22 05:41:09;;;;;;;11.52;7.75;;;5.60;77.20;;;;;;5042559;28;20124;-72
2022/12/22 05:43:35;;;;;;;10.25;7.80;;;5.60;77.40;;;;;;5047396;28;20116;-56
2022/12/22 05:46:06;;;;;;;11.15;7.32;;;5.60;77.40;;;;;;5056125;28;20071;-65
2022/12/22 05:48:33;;;;;;;11.35;7.45;;;5.60;77.30;;;;;;5042380;28;20043;-69
2022/12/22 05:50:58;;;;;;;10.73;8.10;;;5.60;77.20;;;;;;5042823;28;20235;-64
2022/12/22 05:53:24;;;;;;;11.38;8.02;;;5.60;77.20;;;;;;5048893;28;20111;-72
2022/12/22 05:55:51;;;;;;;9.40;7.60;;;5.50;77.20;;;;;;5043601;28;20463;-70
2022/12/22 05:58:17;;;;;;;10.38;7.85;;;5.50;77.40;;;;;;5058225;28;20079;-72
2022/12/22 06:00:43;;;;;;;10.48;7.60;;;5.50;77.50;;;;;;5058373;28;20041;-60
2022/12/22 06:03:09;;;;;;;13.45;9.15;;;5.40;77.50;;;;;;5043705;28;20057;-68
2022/12/22 06:05:34;;;;;;;11.40;8.57;;;5.50;77.60;;;;;;5041892;28;20033;-68
2022/12/22 06:08:00;;;;;;;10.85;8.63;;;5.40;77.70;;;;;;5060858;28;20021;-71
2022/12/22 06:10:26;;;;;;;14.43;9.57;;;5.30;77.80;;;;;;5051613;28;20087;-67
2022/12/22 06:12:51;;;;;;;12.82;10.10;;;5.30;78.00;;;;;;5045204;28;20034;-63
2022/12/22 06:15:17;;;;;;;11.75;9.25;;;5.20;78.20;;;;;;5051557;28;20033;-68
2022/12/22 06:17:42;;;;;;;13.07;9.45;;;5.20;78.50;;;;;;5054328;28;20044;-64
2022/12/22 06:20:09;;;;;;;11.52;9.35;;;5.10;78.50;;;;;;5047261;28;20040;-71
2022/12/22 06:22:35;;;;;;;13.00;9.73;;;5.10;78.70;;;;;;5045610;28;20045;-68
2022/12/22 06:25:00;;;;;;;11.75;8.70;;;5.10;78.90;;;;;;5051728;28;20213;-70
2022/12/22 06:27:26;;;;;;;12.13;8.50;;;5.10;78.90;;;;;;5049370;28;20490;-70
2022/12/22 06:29:52;;;;;;;11.07;8.35;;;5.20;78.90;;;;;;5054617;28;20025;-70
2022/12/22 06:32:18;;;;;;;12.43;9.30;;;5.20;78.80;;;;;;5057228;28;20029;-55
2022/12/22 06:34:43;;;;;;;10.98;8.23;;;5.30;78.60;;;;;;5056878;28;20035;-57
2022/12/22 06:37:09;;;;;;;10.77;8.13;;;5.30;78.40;;;;;;5042709;28;20471;-56
2022/12/22 06:39:35;;;;;;;11.27;8.70;;;5.40;78.30;;;;;;5046249;28;20360;-57
2022/12/22 06:44:49;;;;;;;9.55;7.50;;;5.40;78.20;;;;;;5051490;28;20044;-54
2022/12/22 06:47:16;;;;;;;9.13;7.50;;;5.40;78.00;;;;;;5054584;28;20527;-55
2022/12/22 06:49:41;;;;;;;9.15;7.05;;;5.40;78.00;;;;;;5050393;28;20467;-55
2022/12/22 06:52:08;;;;;;;12.05;7.72;;;5.50;78.00;;;;;;5053433;28;20048;-57
2022/12/22 06:54:33;;;;;;;11.82;9.13;;;5.50;78.00;;;;;;5052496;28;20040;-55
2022/12/22 06:56:59;;;;;;;10.48;9.25;;;5.50;77.80;;;;;;5060988;28;20132;-54
2022/12/22 06:59:25;;;;;;;12.68;9.27;;;5.50;77.60;;;;;;5041240;28;20063;-54
2022/12/22 07:01:50;;;;;;;11.63;8.32;;;5.50;77.60;;;;;;5031602;28;20074;-57
2022/12/22 07:04:19;;;;;;;12.70;9.35;;;5.50;77.70;;;;;;5043339;28;20052;-55
2022/12/22 07:06:46;;;;;;;11.50;8.73;;;5.50;77.90;;;;;;5041774;28;20455;-54
2022/12/22 07:09:11;;;;;;;12.98;10.15;;;5.40;77.90;;;;;;5044192;28;20627;-54
2022/12/22 07:11:37;;;;;;;14.23;9.82;;;5.40;77.90;;;;;;5044570;28;20037;-55
2022/12/22 07:14:03;;;;;;;11.98;9.45;;;5.40;77.90;;;;;;5039399;28;20045;-55
2022/12/22 07:16:28;;;;;;;10.52;8.48;;;5.40;77.90;;;;;;5043093;28;20029;-56
2022/12/22 07:18:54;;;;;;;12.35;9.65;;;5.40;78.00;;;;;;5043503;28;20033;-57
2022/12/22 07:21:19;;;;;;;12.52;8.80;;;5.40;78.00;;;;;;5042514;28;20020;-56
2022/12/22 07:23:45;;;;;;;15.80;10.20;;;5.40;77.90;;;;;;5033767;28;20045;-56
2022/12/22 07:26:11;;;;;;;13.15;9.20;;;5.40;77.70;;;;;;5038990;28;20033;-56
2022/12/22 07:28:39;;;;;;;12.45;8.88;;;5.50;77.70;;;;;;5042798;28;21261;-56
2022/12/22 07:31:05;;;;;;;12.45;8.95;;;5.50;77.60;;;;;;5030251;28;21956;-57
2022/12/22 07:33:31;;;;;;;10.60;7.72;;;5.50;77.60;;;;;;5041351;28;20116;-56
2022/12/22 07:36:15;;;;;;;12.57;9.18;;;5.50;77.70;;;;;;5036906;28;20029;-57
2022/12/22 07:38:43;;;;;;;10.20;8.27;;;5.50;77.50;;;;;;5041040;28;20490;-57
2022/12/22 07:43:55;;;;;;;13.65;9.27;;;5.60;77.10;;;;;;5033661;28;20774;-58
2022/12/22 07:46:22;;;;;;;14.23;9.60;;;5.60;76.90;;;;;;5030952;28;20368;-54
2022/12/22 07:51:35;;;;;;;11.18;8.57;;;5.70;76.80;;;;;;5028380;28;20099;-58
2022/12/22 07:54:03;;;;;;;13.07;10.10;;;5.70;76.70;;;;;;5033881;28;20075;-57
2022/12/22 07:56:30;;;;;;;13.15;9.60;;;5.70;76.80;;;;;;5033102;28;20032;-59
2022/12/22 07:58:55;;;;;;;13.20;10.35;;;5.60;76.70;;;;;;5033126;28;20117;-57
2022/12/22 08:01:21;;;;;;;12.27;8.80;;;5.60;76.70;;;;;;5031162;28;20943;-58
2022/12/22 08:03:47;;;;;;;12.25;9.43;;;5.60;76.60;;;;;;5037030;28;20144;-59
2022/12/22 08:06:13;;;;;;;9.10;7.78;;;5.60;76.60;;;;;;5035381;28;20497;-58
2022/12/22 08:08:38;;;;;;;10.90;8.25;;;5.70;76.70;;;;;;5034396;28;20029;-55
2022/12/22 08:11:04;;;;;;;10.32;7.45;;;5.70;76.60;;;;;;5027852;28;20049;-58
2022/12/22 08:13:30;;;;;;;11.90;7.38;;;5.60;76.50;;;;;;5029184;28;20044;-58
2022/12/22 08:16:05;;;;;;;9.65;7.32;;;5.70;76.60;;;;;;5023787;28;20033;-56
2022/12/22 08:18:32;;;;;;;8.60;6.60;;;5.70;76.50;;;;;;5024205;28;20033;-59
2022/12/22 08:20:57;;;;;;;11.30;7.22;;;5.80;76.40;;;;;;5031070;28;20040;-58
2022/12/22 08:23:23;;;;;;;9.60;7.45;;;5.80;76.10;;;;;;5027176;28;20047;-58
2022/12/22 08:25:56;;;;;;;10.70;7.38;;;5.90;76.20;;;;;;5029581;28;20025;-56
2022/12/22 08:28:23;;;;;;;9.15;6.85;;;6.00;76.10;;;;;;5034052;28;20503;-58
2022/12/22 08:30:48;;;;;;;9.52;7.63;;;6.00;75.90;;;;;;5019018;28;20037;-56
2022/12/22 08:33:14;;;;;;;10.95;7.75;;;6.10;75.90;;;;;;5020807;28;20071;-58
2022/12/22 08:35:41;;;;;;;12.30;8.82;;;6.10;75.40;;;;;;5038524;28;20037;-55
2022/12/22 08:38:07;;;;;;;10.32;8.07;;;6.20;75.30;;;;;;5047810;28;21718;-58
2022/12/22 08:40:33;;;;;;;10.10;7.65;;;6.20;75.30;;;;;;5027176;28;20046;-58
2022/12/22 08:43:03;;;;;;;10.25;7.50;;;6.20;75.20;;;;;;5026095;28;20040;-56
2022/12/22 08:45:29;;;;;;;9.27;7.10;;;6.30;75.10;;;;;;5028963;28;20029;-59
2022/12/22 08:47:55;;;;;;;11.05;7.10;;;6.30;75.00;;;;;;5037231;28;20242;-57
2022/12/22 08:50:20;;;;;;;9.85;7.63;;;6.30;74.90;;;;;;5027357;28;20043;-55
2022/12/22 08:52:46;;;;;;;10.27;7.45;;;6.40;74.90;;;;;;5027491;28;20036;-58
2022/12/22 08:55:11;;;;;;;10.75;8.35;;;6.40;74.70;;;;;;5014860;28;20029;-57
2022/12/22 08:57:37;;;;;;;9.90;7.75;;;6.50;74.80;;;;;;5013056;28;21508;-59
2022/12/22 09:00:05;;;;;;;10.75;8.23;;;6.50;74.50;;;;;;5005186;28;20125;-59
2022/12/22 09:02:32;;;;;;;11.18;8.68;;;6.60;74.50;;;;;;5015241;28;21277;-58
2022/12/22 09:04:57;;;;;;;11.70;8.43;;;6.60;74.40;;;;;;5022958;28;20455;-59
2022/12/22 09:07:23;;;;;;;11.90;9.07;;;6.60;74.30;;;;;;5014311;28;20033;-54
2022/12/22 09:09:49;;;;;;;13.50;9.75;;;6.60;74.10;;;;;;5014425;28;20043;-57
2022/12/22 09:12:15;;;;;;;11.52;9.10;;;6.60;73.90;;;;;;5024805;28;20050;-58
2022/12/22 09:14:41;;;;;;;12.68;8.35;;;6.60;74.00;;;;;;5038335;28;20028;-55
2022/12/22 09:17:07;;;;;;;11.18;8.20;;;6.60;74.00;;;;;;5022276;28;25601;-58
2022/12/22 09:19:33;;;;;;;10.25;8.05;;;6.70;74.20;;;;;;5017371;28;20131;-62
2022/12/22 09:21:58;;;;;;;12.88;9.40;;;6.70;74.20;;;;;;5012046;28;20128;-58
2022/12/22 09:24:24;;;;;;;12.00;8.95;;;6.80;74.50;;;;;;5017288;28;20451;-54
2022/12/22 09:26:49;;;;;;;12.48;8.93;;;6.80;73.90;;;;;;5016831;28;20579;-56
2022/12/22 09:29:15;;;;;;;11.77;9.15;;;6.80;74.00;;;;;;5020629;28;20446;-58
2022/12/22 09:31:42;;;;;;;11.25;8.98;;;6.90;73.90;;;;;;5006448;28;20036;-54
2022/12/22 09:34:08;;;;;;;12.15;9.20;;;6.90;73.90;;;;;;5008025;28;20516;-58
2022/12/22 09:36:33;;;;;;;12.15;9.38;;;7.00;73.70;;;;;;5008959;28;20038;-56
2022/12/22 09:39:07;;;;;;;12.30;8.60;;;7.00;73.50;;;;;;5025090;28;20032;-57
2022/12/22 09:41:53;;;;;;;11.23;8.30;;;6.90;73.30;;;;;;5011058;28;20032;-58
2022/12/22 09:44:32;;;;;;;10.25;8.45;;;6.90;73.40;;;;;;5013313;28;20032;-54
2022/12/22 09:47:01;;;;;;;10.23;8.20;;;6.80;73.60;;;;;;5020138;28;20090;-59
2022/12/22 09:49:27;;;;;;;14.90;10.63;;;6.80;73.70;;;;;;5020052;28;20047;-58
2022/12/22 09:51:56;;;;;;;11.68;8.80;;;6.80;73.80;;;;;;5018094;28;23364;-58
2022/12/22 09:54:24;;;;;;;15.30;9.75;;;6.80;74.00;;;;;;5019910;28;20060;-56
2022/12/22 09:56:49;;;;;;;14.85;10.18;;;6.70;74.00;;;;;;5025491;28;20033;-55
2022/12/22 09:59:19;;;;;;;14.20;9.85;;;6.80;74.10;;;;;;5031361;28;20083;-59
2022/12/22 10:01:56;;;;;;;12.30;8.75;;;6.80;74.20;;;;;;5013477;28;20051;-59
2022/12/22 10:04:50;;;;;;;11.60;7.57;;;6.80;74.20;;;;;;5015995;28;20049;-53
2022/12/22 10:07:31;;;;;;;9.70;7.65;;;6.80;74.20;;;;;;5024732;28;20064;-56
2022/12/22 10:10:05;;;;;;;11.07;8.63;;;6.90;74.00;;;;;;5029735;28;20028;-52
2022/12/22 10:12:30;;;;;;;11.82;8.65;;;6.90;74.00;;;;;;5014313;28;20574;-56
2022/12/22 10:14:56;;;;;;;13.40;10.32;;;6.90;74.10;;;;;;5012797;28;20060;-53
2022/12/22 10:17:33;;;;;;;12.23;9.13;;;6.80;74.00;;;;;;5013329;28;20670;-57
2022/12/22 10:20:07;;;;;;;13.52;10.02;;;6.80;74.10;;;;;;5021066;28;20545;-51
2022/12/22 10:22:47;;;;;;;10.68;9.00;;;6.70;74.10;;;;;;5018667;28;20037;-59
2022/12/22 10:25:37;;;;;;;10.75;7.78;;;6.70;74.20;;;;;;5025733;28;20036;-53
2022/12/22 10:28:09;;;;;;;9.93;7.18;;;6.70;74.40;;;;;;5016775;28;20041;-54
2022/12/22 10:30:37;;;;;;;10.77;8.50;;;6.60;74.60;;;;;;5019376;28;20037;-54
2022/12/22 10:33:14;;;;;;;11.18;8.82;;;6.70;74.70;;;;;;5009054;28;20750;-55
2022/12/22 10:35:54;;;;;;;10.85;8.25;;;6.60;74.40;;;;;;5021346;28;20033;-54
2022/12/22 10:38:30;;;;;;;10.93;8.57;;;6.60;74.70;;;;;;5021591;28;20033;-52
2022/12/22 10:40:58;;;;;;;8.55;6.70;;;6.60;74.60;;;;;;5007635;28;20183;-54
2022/12/22 10:43:26;;;;;;;9.05;6.93;;;6.50;74.70;;;;;;5014939;28;20051;-55
2022/12/22 10:45:53;;;;;;;9.70;7.45;;;6.50;74.80;;;;;;5012987;28;20041;-54
2022/12/22 10:48:28;;;;;;;11.35;8.15;;;6.50;74.80;;;;;;5016033;28;20033;-56
2022/12/22 10:50:56;;;;;;;11.63;8.15;;;6.50;74.80;;;;;;5017382;28;20033;-56
2022/12/22 10:53:39;;;;;;;10.45;8.02;;;6.50;75.00;;;;;;5016802;28;20045;-56
2022/12/22 10:56:07;;;;;;;8.88;7.22;;;6.50;74.90;;;;;;4999306;28;20037;-54
2022/12/22 10:59:14;;;;;;;11.02;7.60;;;6.50;75.20;;;;;;5007750;28;20048;-56
2022/12/22 11:01:40;;;;;;;8.15;6.30;;;6.50;75.20;;;;;;4994334;28;20090;-58
2022/12/22 11:04:26;;;;;;;10.27;7.72;;;6.50;75.10;;;;;;5006395;28;20084;-57
2022/12/22 11:06:54;;;;;;;9.48;7.40;;;6.60;74.80;;;;;;5003046;28;20080;-58
2022/12/22 11:09:20;;;;;;;9.10;7.50;;;6.60;74.80;;;;;;4993530;28;20970;-58
2022/12/22 11:11:51;;;;;;;9.30;7.28;;;6.60;74.80;;;;;;4995088;28;20033;-57
2022/12/22 11:14:34;;;;;;;8.63;7.25;;;6.70;74.80;;;;;;5004310;28;20138;-53
2022/12/22 11:17:10;;;;;;;8.88;7.10;;;6.70;74.70;;;;;;5006416;28;23091;-57
2022/12/22 11:19:50;;;;;;;9.40;7.32;;;6.70;74.90;;;;;;4995910;28;20033;-57
2022/12/22 11:22:30;;;;;;;10.20;7.63;;;6.70;74.80;;;;;;5007769;28;20029;-58
2022/12/22 11:25:32;;;;;;;9.10;7.53;;;6.70;74.70;;;;;;5019838;28;20045;-54
2022/12/22 11:28:08;;;;;;;11.82;8.07;;;6.70;74.60;;;;;;5019078;28;20078;-54
2022/12/22 11:30:53;;;;;;;10.15;8.07;;;6.60;74.80;;;;;;5010763;28;20041;-57
2022/12/22 11:33:33;;;;;;;9.30;8.05;;;6.60;74.90;;;;;;5004704;28;20064;-58
2022/12/22 11:36:06;;;;;;;12.82;8.40;;;6.60;75.00;;;;;;5021179;28;20033;-56
2022/12/22 11:38:52;;;;;;;12.07;8.63;;;6.50;75.20;;;;;;5021531;28;20060;-56
2022/12/22 11:41:21;;;;;;;11.30;8.43;;;6.50;75.10;;;;;;5025926;28;20044;-54
2022/12/22 11:44:16;;;;;;;11.43;8.80;;;6.50;75.20;;;;;;5023621;28;21136;-59
2022/12/22 11:46:49;;;;;;;9.68;7.75;;;6.50;74.90;;;;;;5021821;28;20067;-55
2022/12/22 11:49:20;;;;;;;10.93;7.95;;;6.50;75.20;;;;;;5028951;28;22710;-53
2022/12/22 11:52:00;;;;;;;;;;;6.60;75.40;;;;;;5021234;28;20032;-52
2022/12/22 11:54:57;;;;;;;9.93;7.13;;;6.50;75.20;;;;;;5025720;28;19946;-55
2022/12/22 11:57:35;;;;;;;9.80;7.28;;;6.60;75.30;;;;;;5028406;28;20033;-57
2022/12/22 12:00:07;;;;;;;8.20;7.18;;;6.60;75.40;;;;;;5026560;28;20037;-54
2022/12/22 12:03:08;;;;;;;9.02;7.00;;;6.60;75.50;;;;;;5029229;28;20049;-50
2022/12/22 12:06:16;;;;;;;9.63;7.13;;;6.60;75.40;;;;;;5026962;28;23027;-57
2022/12/22 12:09:15;;;;;;;8.07;6.47;;;6.60;74.80;;;;;;4999595;28;20048;-56
2022/12/22 12:11:40;;;;;;;7.75;6.57;;;6.70;75.50;;;;;;4988771;28;22126;-56
2022/12/22 12:14:29;;;;;;;9.65;7.50;;;6.70;75.40;;;;;;5006140;28;20037;-56
2022/12/22 12:17:13;;;;;;;9.23;7.07;;;6.80;75.20;;;;;;5022389;28;20052;-54
2022/12/22 12:19:54;;;;;;;9.32;6.63;;;6.80;75.20;;;;;;5021112;28;20055;-54
2022/12/22 12:22:37;;;;;;;8.60;6.75;;;6.80;75.20;;;;;;5026341;28;20037;-53
2022/12/22 12:25:10;;;;;;;9.50;7.65;;;6.80;75.10;;;;;;5019287;28;20041;-53
2022/12/22 12:27:35;;;;;;;7.80;6.90;;;6.90;75.10;;;;;;5015379;28;20064;-57
2022/12/22 12:30:14;;;;;;;9.48;7.30;;;6.80;75.00;;;;;;5011471;28;20029;-56
2022/12/22 12:32:53;;;;;;;12.30;7.85;;;6.90;75.00;;;;;;5008725;28;20032;-53
2022/12/22 12:35:50;;;;;;;11.30;9.07;;;6.90;75.00;;;;;;5009349;28;20044;-52
2022/12/22 12:38:28;;;;;;;10.85;8.23;;;6.90;75.00;;;;;;5010761;28;20960;-55
2022/12/22 12:41:19;;;;;;;9.82;8.10;;;6.80;75.00;;;;;;5008667;28;20422;-54
2022/12/22 12:43:48;;;;;;;10.43;7.78;;;6.90;75.10;;;;;;5016130;28;20043;-57
2022/12/22 12:46:43;;;;;;;10.32;8.10;;;6.90;75.30;;;;;;5015705;28;20219;-53
2022/12/22 12:49:33;;;;;;;11.95;8.02;;;6.90;75.00;;;;;;5022477;28;20032;-52
2022/12/22 12:52:04;;;;;;;11.02;8.23;;;7.00;74.90;;;;;;4999899;28;20040;-52
2022/12/22 12:54:32;;;;;;;11.07;8.93;;;7.00;74.80;;;;;;5015697;28;20089;-54
2022/12/22 12:57:10;;;;;;;10.15;7.88;;;7.00;74.50;;;;;;5025947;28;20108;-55
2022/12/22 12:59:42;;;;;;;11.80;8.88;;;7.00;74.50;;;;;;5025532;28;20029;-51
2022/12/22 13:02:26;;;;;;;11.45;8.13;;;7.10;74.50;;;;;;5025538;28;20029;-53
2022/12/22 13:05:09;;;;;;;11.20;8.07;;;7.10;74.30;;;;;;5017537;28;20056;-54
2022/12/22 13:08:09;;;;;;;9.30;7.88;;;7.10;74.20;;;;;;5019924;28;20037;-54
2022/12/22 13:10:39;;;;;;;11.27;8.77;;;7.10;74.10;;;;;;5016379;28;25332;-53
2022/12/22 13:13:08;;;;;;;11.40;9.00;;;7.10;74.00;;;;;;5008306;28;20114;-53
2022/12/22 13:15:38;;;;;;;12.05;9.02;;;7.10;74.00;;;;;;5010079;28;20040;-54
2022/12/22 13:18:28;;;;;;;12.95;9.80;;;7.10;74.00;;;;;;5015281;28;20033;-51
2022/12/22 13:21:05;;;;;;;9.65;7.95;;;7.00;74.10;;;;;;5027480;28;20029;-56
2022/12/22 13:23:39;;;;;;;10.15;8.27;;;6.90;74.30;;;;;;5031600;28;20116;-54
2022/12/22 13:26:27;;;;;;;10.38;7.95;;;6.80;74.50;;;;;;5022013;28;20097;-54
2022/12/22 13:29:34;;;;;;;9.98;7.55;;;6.80;74.70;;;;;;5014129;28;20063;-56
2022/12/22 13:32:12;;;;;;;11.02;7.65;;;6.70;74.80;;;;;;5001801;28;21346;-55
2022/12/22 13:34:51;;;;;;;8.88;7.30;;;6.70;75.10;;;;;;5017153;28;20036;-55
2022/12/22 13:37:21;;;;;;;8.20;7.00;;;6.70;75.10;;;;;;5025391;28;20326;-54
2022/12/22 13:40:07;;;;;;;9.45;7.50;;;6.70;75.30;;;;;;5020132;28;20135;-54
2022/12/22 13:42:47;;;;;;;7.75;6.18;;;6.70;75.20;;;;;;5022813;28;20078;-50
2022/12/22 13:45:20;;;;;;;8.25;6.70;;;6.70;75.00;;;;;;5016386;28;20067;-55
2022/12/22 13:47:47;;;;;;;9.43;7.28;;;6.70;75.10;;;;;;5024048;28;20025;-55
2022/12/22 13:50:35;;;;;;;9.55;7.43;;;6.80;75.00;;;;;;5013912;28;20152;-55
2022/12/22 13:53:04;;;;;;;14.98;10.18;;;6.70;74.90;;;;;;4992690;28;20068;-54
2022/12/22 13:55:31;;;;;;;11.15;8.40;;;6.70;75.00;;;;;;5016795;28;20108;-55
2022/12/22 13:58:06;;;;;;;17.05;11.48;;;6.60;75.30;;;;;;5013495;28;20063;-54
2022/12/22 14:00:32;;;;;;;13.25;9.40;;;6.60;75.40;;;;;;4998246;28;21400;-57
2022/12/22 14:02:58;;;;;;;10.32;8.15;;;6.50;75.60;;;;;;5014187;28;20096;-57
2022/12/22 14:05:31;;;;;;;10.48;8.50;;;6.40;75.60;;;;;;5013043;28;20970;-57
2022/12/22 14:07:57;;;;;;;10.10;7.65;;;6.40;75.80;;;;;;5004757;28;20045;-58
2022/12/22 14:10:33;;;;;;;8.50;7.47;;;6.40;76.00;;;;;;5010308;28;20036;-58
2022/12/22 14:13:01;;;;;;;8.77;7.47;;;6.40;76.10;;;;;;5003179;28;20601;-54
2022/12/22 14:15:27;;;;;;;9.23;8.07;;;6.30;76.20;;;;;;5007207;28;20123;-57
2022/12/22 14:17:53;;;;;;;9.55;7.47;;;6.30;76.40;;;;;;5019233;28;20034;-54
2022/12/22 14:20:35;;;;;;;10.30;8.10;;;6.20;76.50;;;;;;5021058;28;20086;-54
2022/12/22 14:23:10;;;;;;;9.15;7.55;;;6.20;76.50;;;;;;5019607;28;20069;-55
2022/12/22 14:25:40;;;;;;;10.57;8.15;;;6.10;76.80;;;;;;5009564;28;20037;-55
2022/12/22 14:28:16;;;;;;;10.68;7.88;;;6.10;76.90;;;;;;5011090;28;20061;-58
2022/12/22 14:30:47;;;;;;;10.02;6.97;;;6.20;77.00;;;;;;4996501;28;20025;-59
2022/12/22 14:33:26;;;;;;;11.00;7.68;;;6.10;77.00;;;;;;5003768;28;20193;-58
2022/12/22 14:36:03;;;;;;;8.90;6.93;;;6.20;77.10;;;;;;5010352;28;20075;-56
2022/12/22 14:38:36;;;;;;;9.68;7.43;;;6.20;77.10;;;;;;5010567;28;20045;-54
2022/12/22 14:41:40;;;;;;;9.45;6.70;;;6.20;77.20;;;;;;5004786;28;20573;-58
2022/12/22 14:44:28;;;;;;;9.32;6.78;;;6.20;77.20;;;;;;5017567;28;20083;-56
2022/12/22 14:47:10;;;;;;;7.97;6.50;;;6.30;77.10;;;;;;5023204;28;20025;-56
2022/12/22 14:49:55;;;;;;;8.18;6.47;;;6.30;77.10;;;;;;5019840;28;20693;-58
2022/12/22 14:52:28;;;;;;;9.95;7.13;;;6.30;77.00;;;;;;5017266;28;20025;-54
2022/12/22 14:54:54;;;;;;;8.48;6.90;;;6.40;77.10;;;;;;5025206;28;20039;-55
2022/12/22 14:57:41;;;;;;;11.50;8.20;;;6.40;77.00;;;;;;5018924;28;20037;-57
2022/12/22 15:00:22;;;;;;;11.73;8.70;;;6.40;76.90;;;;;;5002240;28;20033;-54
2022/12/22 15:03:00;;;;;;;9.23;7.32;;;6.40;77.30;;;;;;5006686;28;20149;-55
2022/12/22 15:05:33;;;;;;;10.25;7.60;;;6.50;76.60;;;;;;5015192;28;20157;-54
2022/12/22 15:08:00;;;;;;;10.32;8.40;;;6.50;76.40;;;;;;5012153;28;20156;-56
2022/12/22 15:10:32;;;;;;;10.23;8.30;;;6.60;76.40;;;;;;5009075;28;20476;-55
2022/12/22 15:13:01;;;;;;;12.38;8.88;;;6.60;76.30;;;;;;5011769;28;20039;-51
2022/12/22 15:15:30;;;;;;;12.07;8.68;;;6.60;76.40;;;;;;5026615;28;20977;-56
2022/12/22 15:17:56;;;;;;;12.45;8.23;;;6.50;76.50;;;;;;5026064;28;20162;-50
2022/12/22 15:20:24;;;;;;;13.30;8.60;;;6.60;76.60;;;;;;5022507;28;20055;-53
2022/12/22 15:22:50;;;;;;;11.77;8.65;;;6.60;76.60;;;;;;5017060;28;20043;-55
2022/12/22 15:25:21;;;;;;;13.05;8.38;;;6.60;76.70;;;;;;5014693;28;21784;-58
2022/12/22 15:27:47;;;;;;;12.70;8.85;;;6.60;76.60;;;;;;5013231;28;20135;-53
2022/12/22 15:30:16;;;;;;;11.55;9.02;;;6.60;76.70;;;;;;5019006;28;20426;-50
2022/12/22 15:32:42;;;;;;;13.13;9.25;;;6.60;76.60;;;;;;5018721;28;20490;-57
2022/12/22 15:35:18;;;;;;;15.35;9.73;;;6.60;76.70;;;;;;5022379;28;20033;-52
2022/12/22 15:37:44;;;;;;;13.65;10.43;;;6.50;76.70;;;;;;5018496;28;20071;-53
2022/12/22 15:40:28;;;;;;;11.65;9.90;;;6.50;76.90;;;;;;5013711;28;20056;-52
2022/12/22 15:42:54;;;;;;;12.82;9.98;;;6.40;76.90;;;;;;5020624;28;20033;-56
2022/12/22 15:45:21;;;;;;;15.60;9.55;;;6.40;77.10;;;;;;5010746;28;20041;-57
2022/12/22 15:47:50;;;;;;;10.27;8.75;;;6.40;77.40;;;;;;5012048;28;20120;-56
2022/12/22 15:50:30;;;;;;;11.55;8.23;;;6.40;77.60;;;;;;5023395;28;20031;-57
2022/12/22 15:52:57;;;;;;;10.85;8.00;;;6.30;77.80;;;;;;5022117;28;20044;-56
2022/12/22 15:55:24;;;;;;;9.13;7.63;;;6.40;77.80;;;;;;5005735;28;20090;-58
2022/12/22 15:57:52;;;;;;;10.15;7.97;;;6.50;77.70;;;;;;5008113;28;20037;-53
2022/12/22 16:00:19;;;;;;;11.93;8.82;;;6.50;77.60;;;;;;5007524;28;20988;-56
2022/12/22 16:04:09;;;;;;;12.65;9.05;;;6.60;76.80;;;;;;5056484;27;20409;-49
2022/12/22 16:06:35;;;;;;;10.48;8.07;;;6.70;77.10;;;;;;5048453;28;20060;-59
2022/12/22 16:09:02;;;;;;;9.02;7.28;;;6.70;77.00;;;;;;5066937;28;20119;-53
2022/12/22 16:11:28;;;;;;;10.38;7.40;;;6.70;77.00;;;;;;5067830;28;20095;-52
2022/12/22 16:13:54;;;;;;;10.20;7.47;;;6.70;77.00;;;;;;5075670;28;20061;-54
2022/12/22 16:16:20;;;;;;;7.82;6.88;;;6.70;77.10;;;;;;5074157;28;20063;-51
2022/12/22 16:18:45;;;;;;;10.07;7.05;;;6.70;77.10;;;;;;5067141;28;20062;-53
2022/12/22 16:21:17;;;;;;;8.93;7.20;;;6.80;77.50;;;;;;5069793;28;20500;-52
2022/12/22 16:23:46;;;;;;;10.50;8.70;;;6.80;77.30;;;;;;5076637;28;20089;-55
2022/12/22 16:26:16;;;;;;;9.60;7.88;;;6.90;77.30;;;;;;5076099;28;20040;-49
2022/12/22 16:28:41;;;;;;;10.60;8.05;;;6.90;77.20;;;;;;5076103;28;20028;-50
2022/12/22 16:31:18;;;;;;;10.23;7.80;;;6.90;77.20;;;;;;5079960;28;20032;-52
2022/12/22 16:33:44;;;;;;;10.65;8.30;;;7.00;77.30;;;;;;5065055;28;20036;-55
2022/12/22 16:36:10;;;;;;;11.43;8.60;;;7.00;77.20;;;;;;5073401;28;20928;-53
2022/12/22 16:38:35;;;;;;;12.10;8.85;;;7.00;77.10;;;;;;5063666;28;20047;-56
2022/12/22 16:41:02;;;;;;;11.15;8.43;;;7.00;77.10;;;;;;5072047;28;20032;-52
2022/12/22 16:43:37;;;;;;;8.88;7.93;;;7.00;77.20;;;;;;5074688;28;20032;-55
2022/12/22 16:46:04;;;;;;;10.32;9.23;;;7.00;77.10;;;;;;5080351;28;20041;-50
2022/12/22 16:48:39;;;;;;;11.27;8.60;;;7.00;77.10;;;;;;5068377;28;20035;-57
2022/12/22 16:51:05;;;;;;;12.02;8.98;;;7.10;77.20;;;;;;5079105;28;20032;-52
2022/12/22 16:53:31;;;;;;;11.98;8.85;;;7.10;77.10;;;;;;5078532;28;20526;-58